createdAt,value
2019-05-10T00:00:17.216Z,21.95
2019-05-10T00:02:44.191Z,21.95
2019-05-10T00:05:11.107Z,21.87
2019-05-10T00:07:37.980Z,21.80
2019-05-10T00:10:04.909Z,21.79
2019-05-10T00:12:31.880Z,21.80
2019-05-10T00:14:58.828Z,21.79
2019-05-10T00:17:25.715Z,21.81
2019-05-10T00:19:53.061Z,21.77
2019-05-10T00:22:19.918Z,21.75
2019-05-10T00:25:02.437Z,21.78
2019-05-10T00:27:15.812Z,21.82
2019-05-10T00:29:42.693Z,21.81
2019-05-10T00:32:09.913Z,21.82
2019-05-10T00:34:36.874Z,21.83
2019-05-10T00:37:03.824Z,21.89
2019-05-10T00:39:30.706Z,21.92
2019-05-10T00:41:57.581Z,21.94
2019-05-10T00:44:24.468Z,21.93
2019-05-10T00:46:51.407Z,21.90
2019-05-10T00:49:18.724Z,21.88
2019-05-10T00:51:45.616Z,21.87
2019-05-10T00:54:12.579Z,21.85
2019-05-10T00:56:39.527Z,21.86
2019-05-10T00:59:06.477Z,21.85
2019-05-10T01:01:33.418Z,21.87
2019-05-10T01:04:00.283Z,21.88
2019-05-10T01:06:27.240Z,21.88
2019-05-10T01:08:54.204Z,21.88
2019-05-10T01:11:21.147Z,21.90
2019-05-10T01:13:49.096Z,21.96
2019-05-10T01:16:15.952Z,21.99
2019-05-10T01:18:43.096Z,22.04
2019-05-10T01:21:10.052Z,22.05
2019-05-10T01:23:37.321Z,22.05
2019-05-10T01:26:04.195Z,22.02
2019-05-10T01:28:31.082Z,22.02
2019-05-10T01:30:57.975Z,22.00
2019-05-10T01:33:24.924Z,21.99
2019-05-10T01:35:52.133Z,21.96
2019-05-10T01:38:19.015Z,21.93
2019-05-10T01:40:45.977Z,21.93
2019-05-10T01:43:12.931Z,21.90
2019-05-10T01:45:40.878Z,21.90
2019-05-10T01:48:07.828Z,21.89
2019-05-10T01:50:34.785Z,21.90
2019-05-10T01:53:01.651Z,21.87
2019-05-10T01:55:28.598Z,21.88
2019-05-10T01:57:55.495Z,21.85
2019-05-10T02:00:23.560Z,21.81
2019-05-10T02:02:50.463Z,21.77
2019-05-10T02:05:17.331Z,21.75
2019-05-10T02:07:44.561Z,21.76
2019-05-10T02:10:11.479Z,21.78
2019-05-10T02:12:38.806Z,21.80
2019-05-10T02:15:05.769Z,21.78
2019-05-10T02:17:32.715Z,21.77
2019-05-10T02:19:59.646Z,21.77
2019-05-10T02:22:26.948Z,21.78
2019-05-10T02:24:53.832Z,21.78
2019-05-10T02:27:20.811Z,21.73
2019-05-10T02:29:47.754Z,21.70
2019-05-10T02:32:14.608Z,21.72
2019-05-10T02:34:41.503Z,21.74
2019-05-10T02:37:08.426Z,21.73
2019-05-10T02:39:35.304Z,21.72
2019-05-10T02:42:02.275Z,21.72
2019-05-10T02:44:29.210Z,21.72
2019-05-10T02:46:56.164Z,21.73
2019-05-10T02:49:23.115Z,21.72
2019-05-10T02:51:50.022Z,21.72
2019-05-10T02:54:16.988Z,21.73
2019-05-10T02:56:43.955Z,21.74
2019-05-10T02:59:11.867Z,21.71
2019-05-10T03:01:38.827Z,21.69
2019-05-10T03:04:05.761Z,21.68
2019-05-10T03:06:32.729Z,21.69
2019-05-10T03:08:59.621Z,21.70
2019-05-10T03:11:26.605Z,21.70
2019-05-10T03:13:53.560Z,21.73
2019-05-10T03:16:20.532Z,21.72
2019-05-10T03:18:47.764Z,21.68
2019-05-10T03:21:15.678Z,21.68
2019-05-10T03:23:42.641Z,21.66
2019-05-10T03:26:09.641Z,21.66
2019-05-10T03:28:36.693Z,21.65
2019-05-10T03:31:03.596Z,21.63
2019-05-10T03:33:30.498Z,21.64
2019-05-10T03:35:57.433Z,21.63
2019-05-10T03:38:24.317Z,21.62
2019-05-10T03:40:51.269Z,21.58
2019-05-10T03:43:18.242Z,21.53
2019-05-10T03:45:45.209Z,21.49
2019-05-10T03:48:12.148Z,21.48
2019-05-10T03:50:39.109Z,21.48
2019-05-10T03:53:06.065Z,21.46
2019-05-10T03:55:33.013Z,21.48
2019-05-10T03:58:00.307Z,21.50
2019-05-10T04:00:27.250Z,21.51
2019-05-10T04:02:54.209Z,21.52
2019-05-10T04:05:21.192Z,21.54
2019-05-10T04:07:48.407Z,21.55
2019-05-10T04:10:19.899Z,21.56
2019-05-10T04:12:43.962Z,21.56
2019-05-10T04:15:13.185Z,21.55
2019-05-10T04:17:40.086Z,21.57
2019-05-10T04:20:07.038Z,21.60
2019-05-10T04:22:34.263Z,21.61
2019-05-10T04:25:01.196Z,21.62
2019-05-10T04:27:32.330Z,21.63
2019-05-10T04:29:56.962Z,21.60
2019-05-10T04:32:23.929Z,21.58
2019-05-10T04:34:50.893Z,21.57
2019-05-10T04:37:17.856Z,21.58
2019-05-10T04:39:45.753Z,21.59
2019-05-10T04:42:13.034Z,21.60
2019-05-10T04:44:40.001Z,21.64
2019-05-10T04:47:07.993Z,21.64
2019-05-10T04:49:34.896Z,21.65
2019-05-10T04:52:01.961Z,21.65
2019-05-10T04:54:28.912Z,21.68
2019-05-10T04:56:59.954Z,21.71
2019-05-10T04:59:24.869Z,21.74
2019-05-10T05:01:51.777Z,21.76
2019-05-10T05:04:18.637Z,21.78
2019-05-10T05:06:45.520Z,21.78
2019-05-10T05:09:12.913Z,21.76
2019-05-10T05:11:39.867Z,21.79
2019-05-10T05:14:09.463Z,21.84
2019-05-10T05:16:35.321Z,21.91
2019-05-10T05:19:02.177Z,21.93
2019-05-10T05:21:29.084Z,21.99
2019-05-10T05:23:56.047Z,21.99
2019-05-10T05:26:22.905Z,22.02
2019-05-10T05:28:49.772Z,22.04
2019-05-10T05:31:16.718Z,22.12
2019-05-10T05:33:43.847Z,21.70
2019-05-10T05:36:10.766Z,22.27
2019-05-10T05:38:40.433Z,22.30
2019-05-10T05:41:06.316Z,22.35
2019-05-10T05:43:33.271Z,22.32
2019-05-10T05:46:01.211Z,22.36
2019-05-10T05:48:39.818Z,22.37
2019-05-10T05:50:56.699Z,22.34
2019-05-10T05:53:23.663Z,22.31
2019-05-10T05:55:50.592Z,22.32
2019-05-10T05:58:26.689Z,22.39
2019-05-10T06:00:46.813Z,22.52
2019-05-10T06:03:19.262Z,22.73
2019-05-10T06:05:42.493Z,22.90
2019-05-10T06:08:21.390Z,23.00
2019-05-10T06:10:37.946Z,23.38
2019-05-10T06:13:04.801Z,23.82
2019-05-10T06:15:31.699Z,23.79
2019-05-10T06:18:03.274Z,23.63
2019-05-10T06:20:27.200Z,23.52
2019-05-10T06:23:05.576Z,23.39
2019-05-10T06:25:37.716Z,23.33
2019-05-10T06:27:51.516Z,23.44
2019-05-10T06:30:18.405Z,24.09
2019-05-10T06:32:45.289Z,24.19
2019-05-10T06:35:14.133Z,24.16
2019-05-10T06:37:40.853Z,23.97
2019-05-10T06:40:07.752Z,23.81
2019-05-10T06:42:36.162Z,23.55
2019-05-10T06:45:04.977Z,23.40
2019-05-10T06:47:31.891Z,23.29
2019-05-10T06:49:58.775Z,23.20
2019-05-10T06:52:28.032Z,23.13
2019-05-10T06:54:54.221Z,23.08
2019-05-10T06:57:21.193Z,22.96
2019-05-10T06:59:48.155Z,22.91
2019-05-10T07:02:20.072Z,22.91
2019-05-10T07:04:43.924Z,22.87
2019-05-10T07:07:22.239Z,22.82
2019-05-10T07:10:01.533Z,22.73
2019-05-10T07:12:09.318Z,22.69
2019-05-10T07:14:36.917Z,22.68
2019-05-10T07:17:04.474Z,22.70
2019-05-10T07:19:34.972Z,22.69
2019-05-10T07:22:01.198Z,22.69
2019-05-10T07:24:29.105Z,22.71
2019-05-10T07:26:56.486Z,22.77
2019-05-10T07:29:30.074Z,22.82
2019-05-10T07:31:53.143Z,22.78
2019-05-10T07:34:21.126Z,22.71
2019-05-10T07:36:48.062Z,22.68
2019-05-10T07:39:14.917Z,22.65
2019-05-10T07:41:41.851Z,22.59
2019-05-10T07:44:10.566Z,22.53
2019-05-10T07:46:39.922Z,22.47
2019-05-10T07:49:07.582Z,22.41
2019-05-10T07:51:34.569Z,22.41
2019-05-10T07:54:04.806Z,22.42
2019-05-10T07:56:30.098Z,22.31
2019-05-10T07:59:00.444Z,22.20
2019-05-10T08:01:32.161Z,22.19
2019-05-10T08:03:55.400Z,22.17
2019-05-10T08:06:22.650Z,22.16
2019-05-10T08:08:49.833Z,22.19
2019-05-10T08:11:18.956Z,22.21
2019-05-10T08:13:48.545Z,22.19
2019-05-10T08:16:21.929Z,22.17
2019-05-10T08:18:43.700Z,22.21
2019-05-10T08:21:21.274Z,22.27
2019-05-10T08:23:40.984Z,22.33
2019-05-10T08:26:11.073Z,22.32
2019-05-10T08:28:38.649Z,22.32
2019-05-10T08:31:05.027Z,22.34
2019-05-10T08:33:32.775Z,22.40
2019-05-10T08:36:00.935Z,22.40
2019-05-10T08:38:28.462Z,22.55
2019-05-10T08:40:55.421Z,22.70
2019-05-10T08:43:24.522Z,22.74
2019-05-10T08:45:52.448Z,22.77
2019-05-10T08:48:19.700Z,22.62
2019-05-10T08:50:56.379Z,22.56
2019-05-10T08:53:16.557Z,22.57
2019-05-10T08:55:43.755Z,22.59
2019-05-10T08:58:12.395Z,22.64
2019-05-10T09:00:53.400Z,22.70
2019-05-10T09:03:10.277Z,22.83
2019-05-10T09:05:39.784Z,22.96
2019-05-10T09:08:05.979Z,23.10
2019-05-10T09:10:33.013Z,23.30
2019-05-10T09:13:03.129Z,23.36
2019-05-10T09:15:28.507Z,23.26
2019-05-10T09:17:58.384Z,23.22
2019-05-10T09:20:26.458Z,23.29
2019-05-10T09:22:52.985Z,23.34
2019-05-10T09:25:24.936Z,23.37
2019-05-10T09:27:48.661Z,23.37
2019-05-10T09:30:18.389Z,23.35
2019-05-10T09:32:44.582Z,23.23
2019-05-10T09:35:12.768Z,23.13
2019-05-10T09:37:42.099Z,23.14
2019-05-10T09:40:09.950Z,23.07
2019-05-10T09:42:39.858Z,23.03
2019-05-10T09:45:09.375Z,23.14
2019-05-10T09:47:34.301Z,23.33
2019-05-10T09:50:02.320Z,23.55
2019-05-10T09:52:30.769Z,23.72
2019-05-10T09:54:57.675Z,23.84
2019-05-10T09:57:24.609Z,23.89
2019-05-10T09:59:51.495Z,23.87
2019-05-10T10:02:18.994Z,23.82
2019-05-10T10:04:47.366Z,23.77
2019-05-10T10:07:18.552Z,23.72
2019-05-10T10:09:45.032Z,23.64
2019-05-10T10:12:11.549Z,23.50
2019-05-10T10:14:42.998Z,23.43
2019-05-10T10:17:08.327Z,23.39
2019-05-10T10:19:37.619Z,23.28
2019-05-10T10:22:05.479Z,23.22
2019-05-10T10:24:32.549Z,23.24
2019-05-10T10:26:59.403Z,23.31
2019-05-10T10:29:28.776Z,23.40
2019-05-10T10:31:58.646Z,23.43
2019-05-10T10:34:23.440Z,23.48
2019-05-10T10:36:50.372Z,23.57
2019-05-10T10:39:22.713Z,23.70
2019-05-10T10:41:48.040Z,23.82
2019-05-10T10:44:14.424Z,23.92
2019-05-10T10:46:41.305Z,23.96
2019-05-10T10:49:10.444Z,23.96
2019-05-10T10:51:37.991Z,23.87
2019-05-10T10:54:07.248Z,23.72
2019-05-10T10:56:33.891Z,23.59
2019-05-10T10:59:00.864Z,23.49
2019-05-10T11:01:37.823Z,23.46
2019-05-10T11:03:56.467Z,23.48
2019-05-10T11:06:23.822Z,23.53
2019-05-10T11:08:51.840Z,23.52
2019-05-10T11:11:18.977Z,23.51
2019-05-10T11:13:51.751Z,23.49
2019-05-10T11:16:15.755Z,23.50
2019-05-10T11:18:42.971Z,23.57
2019-05-10T11:21:11.268Z,23.71
2019-05-10T11:23:39.239Z,23.82
2019-05-10T11:26:07.276Z,23.87
2019-05-10T11:28:38.560Z,23.76
2019-05-10T11:31:02.806Z,23.74
2019-05-10T11:33:30.819Z,23.78
2019-05-10T11:36:03.919Z,23.87
2019-05-10T11:38:27.157Z,23.93
2019-05-10T11:40:54.129Z,23.97
2019-05-10T11:43:23.925Z,24.00
2019-05-10T11:45:51.451Z,24.06
2019-05-10T11:48:18.118Z,24.08
2019-05-10T11:50:45.028Z,24.07
2019-05-10T11:53:13.220Z,24.17
2019-05-10T11:55:43.534Z,24.30
2019-05-10T12:00:38.033Z,24.19
2019-05-10T12:03:11.235Z,24.16
2019-05-10T12:05:34.654Z,24.23
2019-05-10T12:08:02.245Z,24.27
2019-05-10T12:10:31.466Z,24.24
2019-05-10T12:15:26.541Z,24.12
2019-05-10T12:17:58.951Z,24.06
2019-05-10T12:20:26.902Z,24.08
2019-05-10T12:22:51.740Z,24.09
2019-05-10T12:25:37.632Z,24.08
2019-05-10T12:26:04.744Z,24.29
2019-05-10T12:26:27.645Z,24.19
2019-05-10T12:27:51.499Z,24.07
2019-05-10T12:30:16.339Z,24.03
2019-05-10T12:32:55.385Z,24.06
2019-05-10T12:35:11.861Z,24.19
2019-05-10T12:37:44.528Z,24.30
2019-05-10T12:40:11.969Z,24.29
2019-05-10T12:42:36.376Z,24.16
2019-05-10T12:45:03.278Z,24.01
2019-05-10T12:47:30.594Z,23.95
2019-05-10T12:50:02.060Z,23.84
2019-05-10T12:52:28.888Z,23.82
2019-05-10T12:54:57.277Z,23.79
2019-05-10T12:57:24.141Z,23.80
2019-05-10T12:59:51.022Z,23.81
2019-05-10T13:02:18.974Z,23.93
2019-05-10T13:04:47.139Z,24.06
2019-05-10T13:07:14.592Z,24.07
2019-05-10T13:09:41.647Z,24.09
2019-05-10T13:12:08.611Z,24.10
2019-05-10T13:14:40.139Z,24.16
2019-05-10T13:17:09.758Z,24.22
2019-05-10T13:19:33.060Z,24.29
2019-05-10T13:22:00.815Z,24.32
2019-05-10T13:24:27.898Z,24.33
2019-05-10T13:26:55.934Z,24.30
2019-05-10T13:29:22.877Z,24.19
2019-05-10T13:31:49.790Z,24.19
2019-05-10T13:34:16.986Z,24.23
2019-05-10T13:39:36.685Z,24.19
2019-05-10T13:42:05.139Z,24.15
2019-05-10T13:44:36.975Z,24.18
2019-05-10T13:47:04.633Z,24.26
2019-05-10T13:49:29.394Z,24.26
2019-05-10T13:51:56.633Z,24.19
2019-05-10T13:54:23.516Z,24.24
2019-05-10T13:56:54.989Z,24.29
2019-05-10T13:59:19.092Z,24.23
2019-05-10T14:01:51.363Z,24.19
2019-05-10T14:04:19.226Z,24.21
2019-05-10T14:06:46.158Z,24.18
2019-05-10T14:09:13.145Z,24.19
2019-05-10T14:11:44.147Z,24.20
2019-05-10T14:14:14.507Z,24.25
2019-05-10T14:16:38.112Z,24.30
2019-05-10T14:19:06.381Z,24.26
2019-05-10T14:21:33.302Z,24.24
2019-05-10T14:24:00.551Z,24.27
2019-05-10T14:26:27.497Z,24.22
2019-05-10T14:28:54.702Z,24.23
2019-05-10T14:31:21.701Z,24.27
2019-05-10T14:34:14.273Z,24.32
2019-05-10T14:36:18.432Z,24.39
2019-05-10T14:38:47.213Z,24.35
2019-05-10T14:41:14.942Z,24.36
2019-05-10T14:43:42.271Z,24.40
2019-05-10T14:46:13.849Z,24.40
2019-05-10T14:48:38.121Z,24.41
2019-05-10T14:51:11.003Z,24.37
2019-05-10T14:53:33.684Z,24.38
2019-05-10T14:56:00.883Z,24.42
2019-05-10T14:58:27.781Z,24.47
2019-05-10T15:00:54.724Z,24.39
2019-05-10T15:03:21.637Z,24.33
2019-05-10T15:05:54.048Z,24.27
2019-05-10T15:08:17.201Z,24.33
2019-05-10T15:10:44.150Z,24.39
2019-05-10T15:13:11.344Z,24.46
2019-05-10T15:15:40.229Z,24.49
2019-05-10T15:18:07.187Z,24.42
2019-05-10T15:20:36.004Z,24.40
2019-05-10T15:23:02.717Z,24.36
2019-05-10T15:25:29.648Z,24.36
2019-05-10T15:28:00.156Z,24.40
2019-05-10T15:30:25.218Z,24.47
2019-05-10T15:32:52.152Z,24.55
2019-05-10T15:35:19.982Z,24.49
2019-05-10T15:37:48.362Z,24.39
2019-05-10T15:40:15.444Z,24.29
2019-05-10T15:42:42.670Z,24.27
2019-05-10T15:45:14.260Z,24.25
2019-05-10T15:47:50.087Z,24.22
2019-05-10T15:50:06.976Z,24.14
2019-05-10T15:52:33.895Z,24.01
2019-05-10T15:55:02.853Z,23.91
2019-05-10T15:57:33.889Z,23.92
2019-05-10T16:00:01.867Z,23.93
2019-05-10T16:02:28.932Z,23.88
2019-05-10T16:04:56.245Z,23.90
2019-05-10T16:07:23.397Z,23.91
2019-05-10T16:09:54.416Z,23.85
2019-05-10T16:12:19.064Z,24.07
2019-05-10T16:14:46.068Z,24.08
2019-05-10T16:17:17.038Z,24.05
2019-05-10T16:19:41.598Z,24.06
2019-05-10T16:22:08.542Z,24.08
2019-05-10T16:24:35.410Z,24.10
2019-05-10T16:27:02.313Z,24.12
2019-05-10T16:29:33.795Z,24.06
2019-05-10T16:31:59.342Z,23.98
2019-05-10T16:34:31.695Z,23.86
2019-05-10T16:36:54.972Z,23.73
2019-05-10T16:39:21.949Z,23.65
2019-05-10T16:41:48.901Z,23.57
2019-05-10T16:44:17.180Z,23.49
2019-05-10T16:46:44.125Z,23.52
2019-05-10T16:49:15.590Z,23.57
2019-05-10T16:51:42.508Z,23.56
2019-05-10T16:54:12.981Z,23.51
2019-05-10T16:56:37.919Z,23.51
2019-05-10T16:59:04.793Z,23.52
2019-05-10T17:01:33.661Z,23.55
2019-05-10T17:04:01.734Z,23.55
2019-05-10T17:06:29.260Z,23.54
2019-05-10T17:08:56.144Z,23.54
2019-05-10T17:11:23.423Z,23.54
2019-05-10T17:13:55.570Z,23.57
2019-05-10T17:16:22.003Z,23.60
2019-05-10T17:18:55.223Z,23.60
2019-05-10T17:21:17.624Z,23.62
2019-05-10T17:23:46.741Z,23.64
2019-05-10T17:26:13.204Z,23.66
2019-05-10T17:28:40.335Z,23.67
2019-05-10T17:31:08.176Z,23.68
2019-05-10T17:33:36.804Z,23.69
2019-05-10T17:36:08.273Z,23.69
2019-05-10T17:38:33.648Z,23.69
2019-05-10T17:41:00.560Z,23.68
2019-05-10T17:43:27.495Z,23.70
2019-05-10T17:45:54.464Z,23.71
2019-05-10T17:48:22.524Z,23.72
2019-05-10T17:50:49.400Z,23.71
2019-05-10T17:53:17.043Z,23.71
2019-05-10T17:55:49.222Z,23.71
2019-05-10T17:58:13.090Z,23.71
2019-05-10T18:00:40.044Z,23.69
2019-05-10T18:03:06.946Z,23.70
2019-05-10T18:05:34.152Z,23.68
2019-05-10T18:08:01.030Z,23.67
2019-05-10T18:10:31.159Z,23.64
2019-05-10T18:13:03.520Z,23.62
2019-05-10T18:15:27.791Z,23.65
2019-05-10T18:17:57.415Z,23.69
2019-05-10T18:20:24.002Z,23.63
2019-05-10T18:22:51.030Z,23.56
2019-05-10T18:25:20.274Z,23.50
2019-05-10T18:27:49.517Z,23.41
2019-05-10T18:30:16.402Z,23.36
2019-05-10T18:32:43.563Z,23.29
2019-05-10T18:35:14.510Z,23.25
2019-05-10T18:37:39.515Z,23.23
2019-05-10T18:40:06.474Z,23.19
2019-05-10T18:42:33.447Z,23.10
2019-05-10T18:45:00.394Z,23.03
2019-05-10T18:47:27.770Z,22.98
2019-05-10T18:49:55.742Z,22.94
2019-05-10T18:52:22.661Z,22.93
2019-05-10T18:54:49.543Z,22.94
2019-05-10T18:57:19.197Z,22.93
2019-05-10T18:59:46.906Z,22.90
2019-05-10T19:02:17.783Z,22.80
2019-05-10T19:04:45.955Z,22.73
2019-05-10T19:07:11.182Z,22.67
2019-05-10T19:09:38.138Z,22.58
2019-05-10T19:12:05.191Z,22.46
2019-05-10T19:14:32.541Z,22.36
2019-05-10T19:17:03.939Z,22.33
2019-05-10T19:19:28.109Z,22.31
2019-05-10T19:21:55.090Z,22.26
2019-05-10T19:24:24.286Z,22.16
2019-05-10T19:26:50.556Z,22.10
2019-05-10T19:29:17.518Z,22.07
2019-05-10T19:31:44.389Z,22.05
2019-05-10T19:34:15.452Z,22.03
2019-05-10T19:36:39.870Z,21.98
2019-05-10T19:39:06.816Z,21.98
2019-05-10T19:41:33.860Z,22.00
2019-05-10T19:44:02.701Z,22.04
2019-05-10T19:46:36.625Z,22.00
2019-05-10T19:48:57.977Z,21.98
2019-05-10T19:51:24.926Z,21.93
2019-05-10T19:53:51.862Z,21.89
2019-05-10T19:56:18.735Z,21.89
2019-05-10T19:58:49.079Z,21.89
2019-05-10T20:01:14.581Z,21.86
2019-05-10T20:03:41.608Z,21.83
2019-05-10T20:06:08.496Z,21.84
2019-05-10T20:08:35.436Z,21.88
2019-05-10T20:11:02.309Z,21.91
2019-05-10T20:13:29.206Z,21.92
2019-05-10T20:15:56.145Z,21.87
2019-05-10T20:18:23.097Z,21.85
2019-05-10T20:20:50.157Z,21.85
2019-05-10T20:23:17.078Z,21.83
2019-05-10T20:25:43.987Z,21.76
2019-05-10T20:28:10.950Z,21.68
2019-05-10T20:30:37.912Z,21.64
2019-05-10T20:33:07.622Z,21.62
2019-05-10T20:35:34.638Z,21.60
2019-05-10T20:38:02.681Z,21.57
2019-05-10T20:40:29.661Z,21.61
2019-05-10T20:42:56.580Z,21.62
2019-05-10T20:45:23.854Z,21.60
2019-05-10T20:47:50.806Z,21.50
2019-05-10T20:50:17.741Z,21.48
2019-05-10T20:52:45.074Z,21.41
2019-05-10T20:55:12.010Z,21.42
2019-05-10T20:57:39.303Z,21.37
2019-05-10T21:00:06.262Z,21.32
2019-05-10T21:02:34.832Z,21.23
2019-05-10T21:05:02.936Z,21.12
2019-05-10T21:07:30.329Z,21.00
2019-05-10T21:09:57.378Z,20.89
2019-05-10T21:12:24.341Z,20.87
2019-05-10T21:14:51.328Z,20.84
2019-05-10T21:17:18.201Z,20.83
2019-05-10T21:19:45.085Z,20.81
2019-05-10T21:22:12.045Z,20.77
2019-05-10T21:24:38.996Z,20.80
2019-05-10T21:27:05.933Z,20.83
2019-05-10T21:29:32.806Z,20.88
2019-05-10T21:32:00.149Z,20.89
2019-05-10T21:34:27.361Z,20.95
2019-05-10T21:36:54.328Z,20.95
2019-05-10T21:39:21.646Z,20.98
2019-05-10T21:41:48.509Z,21.05
2019-05-10T21:44:15.735Z,21.12
2019-05-10T21:46:42.641Z,21.16
2019-05-10T21:49:09.557Z,21.19
2019-05-10T21:51:37.386Z,21.21
2019-05-10T21:54:04.289Z,21.18
2019-05-10T21:56:31.231Z,21.21
2019-05-10T21:58:58.099Z,21.26
2019-05-10T22:01:25.287Z,21.29
2019-05-10T22:03:52.246Z,21.33
2019-05-10T22:06:19.180Z,21.36
2019-05-10T22:08:49.390Z,21.38
2019-05-10T22:11:14.654Z,21.37
2019-05-10T22:13:41.994Z,21.36
2019-05-10T22:16:08.877Z,21.33
2019-05-10T22:18:35.861Z,21.29
2019-05-10T22:21:02.807Z,21.22
2019-05-10T22:23:29.669Z,21.21
2019-05-10T22:25:56.561Z,21.16
2019-05-10T22:28:23.436Z,21.13
2019-05-10T22:30:50.378Z,21.13
2019-05-10T22:33:17.518Z,21.15
2019-05-10T22:35:44.393Z,21.17
2019-05-10T22:38:11.628Z,21.19
2019-05-10T22:40:38.913Z,21.21
2019-05-10T22:43:05.860Z,21.24
2019-05-10T22:45:32.790Z,21.20
2019-05-10T22:47:59.657Z,21.21
2019-05-10T22:50:26.534Z,21.20
2019-05-10T22:52:53.492Z,21.19
2019-05-10T22:55:20.549Z,21.20
2019-05-10T22:57:47.510Z,21.24
2019-05-10T23:00:14.454Z,21.31
2019-05-10T23:02:41.321Z,21.31
2019-05-10T23:05:09.260Z,21.32
2019-05-10T23:07:36.289Z,21.31
2019-05-10T23:10:03.177Z,21.30
2019-05-10T23:12:30.136Z,21.25
2019-05-10T23:14:57.070Z,21.25
2019-05-10T23:17:23.953Z,21.22
2019-05-10T23:19:50.823Z,21.20
2019-05-10T23:22:17.744Z,21.18
2019-05-10T23:24:44.669Z,21.18
2019-05-10T23:27:11.525Z,21.18
2019-05-10T23:29:38.412Z,21.16
2019-05-10T23:32:05.369Z,21.18
2019-05-10T23:34:32.405Z,21.24
2019-05-10T23:36:59.330Z,21.19
2019-05-10T23:39:39.641Z,21.21
2019-05-10T23:41:54.831Z,21.20
2019-05-10T23:44:21.777Z,21.15
2019-05-10T23:46:48.849Z,21.13
2019-05-10T23:49:15.782Z,21.14
2019-05-10T23:51:42.661Z,21.13
2019-05-10T23:54:09.525Z,21.10
2019-05-10T23:56:36.456Z,21.09
2019-05-10T23:59:03.349Z,21.09
